Time;durP1;ratioP1;P1;durP2;ratioP2;P2;SDS_P1;SDS_P2;PMS_P1;PMS_P2;Temp;Humidity;BMP_temperature;BMP_pressure;BME280_temperature;BME280_humidity;BME280_pressure;Samples;Min_cycle;Max_cycle;Signal;HPM_P1;HPM_P2
2021/01/19 00:00:34;;;;;;;50.80;28.67;;;12.90;2201.60;;;;;;4984057;28;20110;-75
2021/01/19 00:03:00;;;;;;;57.80;32.53;;;12.90;2201.60;;;;;;4975466;28;20031;-75
2021/01/19 00:05:25;;;;;;;51.50;30.00;;;12.90;2201.60;;;;;;4987067;28;20051;-76
2021/01/19 00:07:54;;;;;;;53.20;30.87;;;12.90;2201.60;;;;;;4992595;28;20027;-77
2021/01/19 00:10:23;;;;;;;49.97;28.60;;;12.90;2201.60;;;;;;4996176;28;20035;-79
2021/01/19 00:12:49;;;;;;;51.70;29.17;;;12.90;2201.60;;;;;;4996244;28;20015;-77
2021/01/19 00:15:15;;;;;;;51.67;29.70;;;12.90;2201.60;;;;;;4993023;28;20029;-77
2021/01/19 00:17:42;;;;;;;48.63;29.43;;;12.90;2201.60;;;;;;4998677;28;20034;-77
2021/01/19 00:20:11;;;;;;;47.50;29.17;;;12.90;2201.60;;;;;;4996482;28;20061;-80
2021/01/19 00:22:38;;;;;;;53.70;30.03;;;12.90;2201.60;;;;;;4987636;28;20051;-78
2021/01/19 00:25:05;;;;;;;51.23;28.77;;;12.90;2201.60;;;;;;4997799;28;20026;-80
2021/01/19 00:27:30;;;;;;;53.43;29.33;;;12.90;2201.60;;;;;;4999639;28;20031;-78
2021/01/19 00:29:57;;;;;;;58.80;31.53;;;12.90;2201.60;;;;;;5000527;28;20054;-77
2021/01/19 00:32:23;;;;;;;55.07;29.80;;;12.90;2201.60;;;;;;5001758;28;20066;-80
2021/01/19 00:34:49;;;;;;;55.67;32.00;;;12.90;2201.60;;;;;;5002826;28;20018;-80
2021/01/19 00:37:15;;;;;;;57.00;31.17;;;12.90;2201.60;;;;;;4981682;28;20028;-79
2021/01/19 00:39:41;;;;;;;54.33;31.03;;;12.90;2201.60;;;;;;4997181;28;20019;-77
2021/01/19 00:42:10;;;;;;;55.03;31.00;;;12.90;2201.60;;;;;;4999940;28;20046;-79
2021/01/19 00:44:38;;;;;;;52.50;29.37;;;12.90;2201.60;;;;;;5001109;28;20168;-78
2021/01/19 00:47:05;;;;;;;55.03;30.60;;;12.90;2201.60;;;;;;4998672;28;20038;-77
2021/01/19 00:49:33;;;;;;;51.13;29.40;;;12.90;2201.60;;;;;;4999955;28;20058;-80
2021/01/19 00:51:59;;;;;;;51.83;27.93;;;12.90;2201.60;;;;;;5004040;28;20030;-77
2021/01/19 00:54:26;;;;;;;47.00;27.07;;;12.90;2201.60;;;;;;5006009;28;20539;-80
2021/01/19 00:56:51;;;;;;;47.93;27.33;;;0.00;2201.60;;;;;;5010271;28;20014;-81
2021/01/19 00:59:17;;;;;;;49.83;27.33;;;0.00;2201.60;;;;;;5010261;28;20081;-77
2021/01/19 01:01:48;;;;;;;47.13;25.30;;;0.00;2201.60;;;;;;5010256;28;20026;-76
2021/01/19 01:04:14;;;;;;;47.13;26.27;;;12.90;2201.60;;;;;;5012760;28;20061;-77
2021/01/19 01:06:41;;;;;;;47.63;26.43;;;0.00;2201.60;;;;;;5013268;28;20046;-78
2021/01/19 01:09:07;;;;;;;42.53;25.70;;;0.00;2201.60;;;;;;5006590;28;20096;-76
2021/01/19 01:11:46;;;;;;;48.27;25.50;;;0.00;2201.60;;;;;;5005483;28;20074;-78
2021/01/19 01:14:14;;;;;;;49.67;27.27;;;0.00;2201.60;;;;;;5009088;28;20033;-78
2021/01/19 01:16:41;;;;;;;43.77;23.53;;;0.00;2201.60;;;;;;5009586;28;20529;-81
2021/01/19 01:19:08;;;;;;;40.83;23.77;;;0.10;2201.60;;;;;;5009047;28;20041;-77
2021/01/19 01:21:38;;;;;;;41.83;24.03;;;0.00;2201.60;;;;;;4996173;28;20023;-76
2021/01/19 01:24:08;;;;;;;41.07;23.20;;;0.00;2201.60;;;;;;4996118;28;20392;-76
2021/01/19 01:26:35;;;;;;;37.00;21.97;;;0.00;2201.60;;;;;;4994786;28;20393;-76
2021/01/19 01:29:01;;;;;;;35.67;20.93;;;0.10;2201.60;;;;;;4996004;28;20116;-77
2021/01/19 01:31:27;;;;;;;36.80;22.00;;;0.00;2201.60;;;;;;4994738;28;20538;-76
2021/01/19 01:33:53;;;;;;;35.93;21.40;;;0.00;2201.60;;;;;;4996077;28;20023;-76
2021/01/19 01:36:19;;;;;;;30.67;20.20;;;0.00;2201.60;;;;;;4994676;28;20026;-77
2021/01/19 01:38:45;;;;;;;36.60;20.87;;;0.10;2201.60;;;;;;4994496;28;20387;-77
2021/01/19 01:41:21;;;;;;;36.10;22.10;;;0.10;2201.60;;;;;;4994504;28;20450;-76
2021/01/19 01:43:48;;;;;;;37.20;22.27;;;0.10;2201.60;;;;;;4995214;28;20093;-77
2021/01/19 01:46:15;;;;;;;40.00;22.07;;;0.10;2201.60;;;;;;4994888;28;20105;-76
2021/01/19 01:48:47;;;;;;;49.40;27.43;;;0.00;2201.60;;;;;;4994317;28;20470;-76
2021/01/19 01:51:13;;;;;;;41.60;25.07;;;0.00;2201.60;;;;;;4993830;28;20034;-76
2021/01/19 01:53:40;;;;;;;38.53;21.80;;;0.10;2201.60;;;;;;4994561;28;20030;-76
2021/01/19 01:56:09;;;;;;;34.77;21.37;;;0.00;2201.60;;;;;;4995077;28;20061;-76
2021/01/19 01:58:36;;;;;;;36.40;22.10;;;0.00;2201.60;;;;;;4993623;28;20018;-76
2021/01/19 02:01:04;;;;;;;36.00;21.43;;;0.00;2201.60;;;;;;4995058;28;20022;-76
2021/01/19 02:03:30;;;;;;;38.73;21.17;;;0.10;2201.60;;;;;;4995592;28;20018;-76
2021/01/19 02:05:57;;;;;;;34.27;20.93;;;0.10;2201.60;;;;;;4994699;28;20058;-76
2021/01/19 02:08:42;;;;;;;36.20;22.37;;;0.00;2201.60;;;;;;4993702;28;20391;-77
2021/01/19 02:11:23;;;;;;;36.47;21.00;;;0.10;2201.60;;;;;;4993587;28;20037;-76
2021/01/19 02:14:16;;;;;;;34.13;20.67;;;0.10;2201.60;;;;;;4995068;28;20022;-75
2021/01/19 02:17:18;;;;;;;31.23;19.10;;;0.10;2201.60;;;;;;4994599;28;20028;-76
2021/01/19 02:20:02;;;;;;;32.97;19.00;;;0.10;2201.60;;;;;;4993706;28;20125;-76
2021/01/19 02:22:46;;;;;;;;;;;0.00;2201.60;;;;;;4993739;28;20369;-76
2021/01/19 02:25:12;;;;;;;38.55;21.40;;;0.00;2201.60;;;;;;4994092;28;19906;-76
2021/01/19 02:28:03;;;;;;;37.23;21.60;;;0.00;2201.60;;;;;;4994903;28;20022;-76
2021/01/19 02:30:38;;;;;;;41.20;21.80;;;0.00;2201.60;;;;;;4996154;28;20037;-76
2021/01/19 02:33:31;;;;;;;33.87;20.00;;;0.00;2201.60;;;;;;4993894;28;20026;-76
2021/01/19 02:36:21;;;;;;;38.80;22.87;;;0.00;2201.60;;;;;;4993250;28;20546;-76
2021/01/19 02:38:58;;;;;;;35.03;21.27;;;0.00;2201.60;;;;;;4994407;28;20033;-76
2021/01/19 02:41:26;;;;;;;34.33;20.20;;;0.00;2201.60;;;;;;4993143;28;20030;-78
2021/01/19 02:44:20;;;;;;;30.53;18.50;;;12.90;2201.60;;;;;;4993215;28;20041;-76
2021/01/19 02:46:53;;;;;;;;;;;12.90;2201.60;;;;;;4994967;28;20025;-76
2021/01/19 02:49:20;;;;;;;32.57;18.40;;;12.90;2201.60;;;;;;5009836;28;20325;-76
2021/01/19 02:51:48;;;;;;;32.03;19.03;;;12.90;2201.60;;;;;;4993401;28;20415;-76
2021/01/19 02:54:16;;;;;;;37.83;20.47;;;12.90;2201.60;;;;;;4993657;28;20022;-76
2021/01/19 02:57:08;;;;;;;33.07;19.97;;;0.00;2201.60;;;;;;4994578;28;20382;-75
2021/01/19 02:59:41;;;;;;;32.23;19.53;;;0.00;2201.60;;;;;;4993709;28;20045;-76
2021/01/19 03:02:11;;;;;;;33.83;19.80;;;0.00;2201.60;;;;;;4993967;28;20125;-76
2021/01/19 03:04:38;;;;;;;33.30;19.53;;;0.00;2201.60;;;;;;4993149;28;20618;-76
2021/01/19 03:07:08;;;;;;;29.07;18.63;;;0.00;2201.60;;;;;;4993023;28;20522;-77
2021/01/19 03:09:41;;;;;;;31.00;18.57;;;0.00;2201.60;;;;;;4994151;28;20030;-76
2021/01/19 03:12:13;;;;;;;29.97;19.03;;;12.90;2201.60;;;;;;4993143;28;20376;-76
2021/01/19 03:14:40;;;;;;;33.30;20.17;;;12.90;2201.60;;;;;;4992768;28;20054;-76
2021/01/19 03:17:09;;;;;;;33.40;19.17;;;12.90;2201.60;;;;;;4992759;28;20022;-76
2021/01/19 03:19:39;;;;;;;35.27;21.80;;;12.90;2201.60;;;;;;4994125;28;20468;-76
2021/01/19 03:22:05;;;;;;;34.50;21.73;;;0.00;2201.60;;;;;;4993905;28;20034;-76
2021/01/19 03:24:32;;;;;;;35.97;22.00;;;0.00;2201.60;;;;;;4993820;28;20018;-76
2021/01/19 03:26:57;;;;;;;36.40;22.07;;;0.00;2201.60;;;;;;4992660;28;20026;-76
2021/01/19 03:29:24;;;;;;;33.03;20.97;;;0.00;2201.60;;;;;;4993044;28;20027;-76
2021/01/19 03:31:49;;;;;;;36.70;21.70;;;0.00;2201.60;;;;;;4993423;28;20522;-76
2021/01/19 03:34:15;;;;;;;32.97;19.93;;;0.00;2201.60;;;;;;4994154;28;20054;-76
2021/01/19 03:36:42;;;;;;;35.00;21.17;;;0.00;2201.60;;;;;;4993486;28;20053;-76
2021/01/19 03:39:08;;;;;;;31.73;18.43;;;0.00;2201.60;;;;;;4994682;28;20027;-76
2021/01/19 03:41:34;;;;;;;30.70;19.03;;;0.00;2201.60;;;;;;4994221;28;20356;-76
2021/01/19 03:44:00;;;;;;;31.73;18.77;;;0.00;2201.60;;;;;;4993311;28;20026;-76
2021/01/19 03:46:26;;;;;;;28.90;17.83;;;0.00;2201.60;;;;;;4998101;28;20553;-76
2021/01/19 03:48:52;;;;;;;32.53;18.57;;;0.00;2201.60;;;;;;4998225;28;20030;-76
2021/01/19 03:51:19;;;;;;;31.10;19.30;;;0.00;2201.60;;;;;;4998321;28;20042;-76
2021/01/19 03:53:45;;;;;;;35.20;20.03;;;0.00;2201.60;;;;;;4996591;28;20037;-77
2021/01/19 03:56:11;;;;;;;32.97;18.77;;;0.00;2201.60;;;;;;4998278;28;20121;-76
2021/01/19 03:58:36;;;;;;;30.83;18.30;;;0.00;2201.60;;;;;;4998016;28;20030;-76
2021/01/19 04:01:02;;;;;;;37.73;20.57;;;0.00;2201.60;;;;;;5002130;28;20078;-78
2021/01/19 04:03:28;;;;;;;36.97;21.90;;;0.00;2201.60;;;;;;5000787;28;20034;-76
2021/01/19 04:05:54;;;;;;;41.73;23.90;;;0.00;2201.60;;;;;;4995532;28;20138;-76
2021/01/19 04:08:20;;;;;;;36.00;21.07;;;0.00;2201.60;;;;;;4996647;28;20085;-75
2021/01/19 04:10:48;;;;;;;37.63;21.80;;;0.00;2201.60;;;;;;4997048;28;20050;-76
2021/01/19 04:13:16;;;;;;;33.13;19.37;;;0.10;2201.60;;;;;;4995896;28;20026;-76
2021/01/19 04:15:42;;;;;;;34.03;19.47;;;0.10;2201.60;;;;;;4998342;28;20113;-76
2021/01/19 04:18:08;;;;;;;34.63;20.93;;;0.10;2201.60;;;;;;4997669;28;20018;-76
2021/01/19 04:20:34;;;;;;;32.97;19.47;;;0.10;2201.60;;;;;;4983510;28;20023;-76
2021/01/19 04:23:00;;;;;;;29.33;18.90;;;0.10;2201.60;;;;;;4976446;28;20089;-76
2021/01/19 04:25:26;;;;;;;30.70;19.33;;;0.10;2201.60;;;;;;4975731;28;20027;-76
2021/01/19 04:27:52;;;;;;;33.80;19.73;;;0.10;2201.60;;;;;;4976383;28;20030;-76
2021/01/19 04:30:19;;;;;;;30.87;19.87;;;0.10;2201.60;;;;;;4977728;28;20045;-76
2021/01/19 04:32:46;;;;;;;31.13;20.23;;;0.10;2201.60;;;;;;4975594;28;20115;-76
2021/01/19 04:35:12;;;;;;;35.97;21.73;;;0.20;2201.60;;;;;;4977279;28;20459;-76
2021/01/19 04:37:38;;;;;;;32.47;19.43;;;0.10;2201.60;;;;;;4978182;28;20054;-76
2021/01/19 04:40:05;;;;;;;39.67;20.60;;;0.20;2201.60;;;;;;4978251;28;20487;-75
2021/01/19 04:42:37;;;;;;;31.60;18.80;;;0.10;2201.60;;;;;;4978819;28;20029;-75
2021/01/19 04:45:07;;;;;;;32.07;19.40;;;0.10;2201.60;;;;;;4981730;28;20029;-76
2021/01/19 04:47:33;;;;;;;31.47;18.30;;;0.10;2201.60;;;;;;4977530;28;20035;-75
2021/01/19 04:50:05;;;;;;;30.40;18.60;;;0.10;2201.60;;;;;;4977126;28;20037;-76
2021/01/19 04:52:33;;;;;;;29.17;18.43;;;0.10;2201.60;;;;;;4980020;28;20027;-76
2021/01/19 04:55:17;;;;;;;29.33;17.80;;;0.10;2201.60;;;;;;4962689;28;20050;-76
2021/01/19 04:57:43;;;;;;;30.73;17.60;;;0.10;2201.60;;;;;;4975099;28;20033;-76
2021/01/19 05:00:18;;;;;;;28.20;16.60;;;0.10;2201.60;;;;;;4977537;28;20380;-76
2021/01/19 05:03:10;;;;;;;25.33;16.00;;;0.90;2201.60;;;;;;4981007;28;20035;-76
2021/01/19 05:05:35;;;;;;;26.17;16.63;;;0.20;2201.60;;;;;;4971408;28;20109;-75
2021/01/19 05:08:13;;;;;;;28.23;16.37;;;0.10;2201.60;;;;;;4976986;28;20011;-76
2021/01/19 05:10:39;;;;;;;29.50;16.70;;;0.10;2201.60;;;;;;4984424;28;20084;-81
2021/01/19 05:13:13;;;;;;;28.13;17.73;;;0.10;2201.60;;;;;;4996148;28;20176;-81
2021/01/19 05:15:47;;;;;;;31.03;19.73;;;0.10;2201.60;;;;;;4979935;28;20031;-81
2021/01/19 05:18:15;;;;;;;;;;;0.10;2201.60;;;;;;4997279;28;20010;-80
2021/01/19 05:20:49;;;;;;;30.30;19.37;;;0.10;2201.60;;;;;;4996819;28;19890;-80
2021/01/19 05:23:22;;;;;;;32.00;18.97;;;0.10;2201.60;;;;;;4995795;28;20035;-80
2021/01/19 05:26:12;;;;;;;28.92;18.98;;;0.10;2201.60;;;;;;4994528;28;20011;-80
2021/01/19 05:28:47;;;;;;;32.37;20.20;;;0.10;2201.60;;;;;;4995208;28;20027;-80
2021/01/19 05:31:18;;;;;;;30.70;20.07;;;0.10;2201.60;;;;;;4993160;28;20058;-76
2021/01/19 05:34:05;;;;;;;33.33;20.23;;;0.10;2201.60;;;;;;4990815;28;20022;-77
2021/01/19 05:36:42;;;;;;;32.20;18.37;;;0.10;2201.60;;;;;;4984938;28;20038;-77
2021/01/19 05:39:22;;;;;;;31.83;19.30;;;0.10;2201.60;;;;;;4993585;28;20026;-79
2021/01/19 05:41:51;;;;;;;32.60;19.30;;;0.10;2201.60;;;;;;4996293;28;20022;-80
2021/01/19 05:44:27;;;;;;;37.20;20.90;;;0.10;2201.60;;;;;;4992566;28;20031;-77
2021/01/19 05:47:04;;;;;;;33.27;19.73;;;0.10;2201.60;;;;;;4995795;28;20034;-77
2021/01/19 05:49:48;;;;;;;39.07;23.57;;;0.10;2201.60;;;;;;4991885;28;20090;-77
2021/01/19 05:52:16;;;;;;;31.10;18.03;;;0.20;2201.60;;;;;;4996540;28;20034;-80
2021/01/19 05:54:49;;;;;;;32.93;18.70;;;0.20;2201.60;;;;;;4994619;28;20026;-77
2021/01/19 05:57:23;;;;;;;30.15;18.45;;;0.20;2201.60;;;;;;4993754;28;20049;-82
2021/01/19 06:00:25;;;;;;;29.08;17.70;;;0.20;2201.60;;;;;;4994949;28;20015;-81
2021/01/19 06:02:55;;;;;;;40.53;21.47;;;0.20;2201.60;;;;;;4993922;28;20023;-80
2021/01/19 06:05:22;;;;;;;45.50;22.83;;;0.20;2201.60;;;;;;4995385;28;20029;-81
2021/01/19 06:07:56;;;;;;;46.00;23.97;;;0.20;2201.60;;;;;;4994262;28;20050;-81
2021/01/19 06:10:27;;;;;;;50.23;25.73;;;0.30;2201.60;;;;;;4994240;28;20035;-81
2021/01/19 06:12:57;;;;;;;60.00;28.70;;;0.20;2201.60;;;;;;4995825;28;20086;-81
2021/01/19 06:15:34;;;;;;;54.57;27.77;;;0.30;2201.60;;;;;;4995134;28;20030;-80
2021/01/19 06:18:00;;;;;;;48.07;27.63;;;0.30;2201.60;;;;;;4995497;28;20091;-81
2021/01/19 06:20:26;;;;;;;50.73;29.00;;;0.30;2201.60;;;;;;4994384;28;20003;-81
2021/01/19 06:22:52;;;;;;;46.37;27.63;;;0.30;2201.60;;;;;;4995265;28;20034;-80
2021/01/19 06:25:19;;;;;;;35.50;22.07;;;0.30;2201.60;;;;;;4995530;28;20027;-81
2021/01/19 06:27:47;;;;;;;42.80;25.00;;;0.30;2201.60;;;;;;4993835;28;20030;-78
2021/01/19 06:30:14;;;;;;;51.17;26.50;;;0.30;2201.60;;;;;;4994320;28;20090;-78
2021/01/19 06:32:59;;;;;;;67.67;33.60;;;0.20;2201.60;;;;;;4995206;28;20031;-81
2021/01/19 06:35:25;;;;;;;40.77;24.43;;;0.30;2201.60;;;;;;4995420;28;20023;-81
2021/01/19 06:37:54;;;;;;;38.57;20.73;;;0.30;2201.60;;;;;;4995336;28;20057;-82
2021/01/19 06:40:24;;;;;;;35.37;20.87;;;0.30;2201.60;;;;;;4994248;28;20054;-80
2021/01/19 06:42:59;;;;;;;34.70;22.53;;;0.30;2201.60;;;;;;4978997;28;20027;-81
2021/01/19 06:45:25;;;;;;;47.57;27.93;;;0.30;2201.60;;;;;;4994313;28;20069;-81
2021/01/19 06:47:54;;;;;;;47.10;27.67;;;0.30;2201.60;;;;;;4996634;28;20042;-78
2021/01/19 06:50:26;;;;;;;39.57;23.70;;;0.30;2201.60;;;;;;4995361;28;20011;-80
2021/01/19 06:53:31;;;;;;;32.40;19.20;;;0.30;2201.60;;;;;;4996002;28;20058;-82
2021/01/19 06:56:00;;;;;;;32.80;18.15;;;0.30;2201.60;;;;;;4996122;28;20035;-79
2021/01/19 06:59:05;;;;;;;33.03;19.30;;;0.20;2201.60;;;;;;4992131;28;20080;-76
2021/01/19 07:01:37;;;;;;;34.22;19.50;;;0.20;2201.60;;;;;;4993624;28;20119;-79
2021/01/19 07:04:27;;;;;;;33.40;20.00;;;0.20;2201.60;;;;;;4994673;28;20029;-80
2021/01/19 07:07:12;;;;;;;39.23;21.23;;;0.30;2201.60;;;;;;4985102;28;20074;-80
2021/01/19 07:10:03;;;;;;;35.90;22.50;;;0.30;2201.60;;;;;;4992860;28;20102;-80
2021/01/19 07:12:58;;;;;;;39.23;21.53;;;0.40;2201.60;;;;;;4992822;28;20082;-80
2021/01/19 07:16:03;;;;;;;44.70;25.13;;;0.50;2201.60;;;;;;4994339;28;20003;-77
2021/01/19 07:18:45;;;;;;;49.90;27.35;;;0.50;2201.60;;;;;;4992929;28;20014;-80
2021/01/19 07:21:15;;;;;;;47.13;27.73;;;0.50;2201.60;;;;;;4995156;28;20038;-81
2021/01/19 07:23:47;;;;;;;70.43;35.60;;;0.60;2201.60;;;;;;4995972;28;20019;-80
2021/01/19 07:26:18;;;;;;;54.80;30.00;;;0.70;2201.60;;;;;;4995929;28;20080;-80
2021/01/19 07:28:45;;;;;;;47.37;28.93;;;0.70;2201.60;;;;;;4995475;28;20031;-80
2021/01/19 07:31:12;;;;;;;50.23;29.43;;;0.70;2201.60;;;;;;4996599;28;20034;-80
2021/01/19 07:33:44;;;;;;;64.60;37.67;;;0.70;2201.60;;;;;;4994796;28;20026;-78
2021/01/19 07:36:17;;;;;;;64.67;38.03;;;0.70;2201.60;;;;;;4995876;28;20042;-80
2021/01/19 07:38:44;;;;;;;58.13;33.25;;;0.80;2201.60;;;;;;4995257;28;20027;-78
2021/01/19 07:41:11;;;;;;;56.57;31.23;;;0.90;2201.60;;;;;;4997242;28;20035;-81
2021/01/19 07:43:39;;;;;;;64.93;34.67;;;25.60;2201.60;;;;;;4993193;28;20030;-77
2021/01/19 07:46:06;;;;;;;62.33;35.97;;;25.60;2176.00;;;;;;4995013;28;20532;-81
2021/01/19 07:48:37;;;;;;;62.07;37.27;;;25.70;2176.00;;;;;;4996129;28;20026;-81
2021/01/19 07:51:12;;;;;;;69.83;40.27;;;25.80;2150.40;;;;;;4996480;28;20031;-80
2021/01/19 07:53:51;;;;;;;82.63;43.83;;;26.00;2150.40;;;;;;4996488;28;20014;-80
2021/01/19 07:56:34;;;;;;;100.07;58.40;;;26.20;2124.80;;;;;;4997671;28;20086;-80
2021/01/19 07:59:02;;;;;;;95.97;54.57;;;26.30;2124.80;;;;;;4997442;28;20003;-80
2021/01/19 08:01:35;;;;;;;166.20;87.93;;;26.40;2124.80;;;;;;4980371;28;20468;-79
2021/01/19 08:04:13;;;;;;;84.13;44.57;;;26.40;2099.20;;;;;;4996864;28;20479;-78
2021/01/19 08:06:42;;;;;;;81.47;42.77;;;26.50;2099.20;;;;;;4995865;28;20050;-77
2021/01/19 08:09:20;;;;;;;74.73;41.77;;;26.50;2073.60;;;;;;4991354;28;20031;-78
2021/01/19 08:11:47;;;;;;;93.73;45.17;;;26.40;2048.00;;;;;;4994072;28;20043;-80
2021/01/19 08:14:14;;;;;;;191.17;78.10;;;26.40;2073.60;;;;;;4992912;28;20069;-79
2021/01/19 08:16:49;;;;;;;542.63;238.93;;;26.40;2048.00;;;;;;4993963;28;20038;-80
2021/01/19 08:19:16;;;;;;;425.07;181.70;;;26.40;2048.00;;;;;;4994693;28;20150;-80
2021/01/19 08:21:54;;;;;;;467.33;203.90;;;26.50;2048.00;;;;;;4995319;28;20023;-80
2021/01/19 08:24:25;;;;;;;142.17;68.73;;;51.20;2073.60;;;;;;4994662;28;20027;-77
2021/01/19 08:26:51;;;;;;;96.83;49.90;;;51.30;2073.60;;;;;;4990000;28;20559;-78
2021/01/19 08:29:19;;;;;;;55.47;31.93;;;51.20;2073.60;;;;;;4991683;28;20050;-77
2021/01/19 08:31:54;;;;;;;71.20;34.63;;;51.20;2073.60;;;;;;4991280;28;20151;-77
2021/01/19 08:34:23;;;;;;;108.23;50.17;;;26.50;2048.00;;;;;;4993559;28;20018;-77
2021/01/19 08:36:50;;;;;;;88.60;43.00;;;51.20;2099.20;;;;;;4974735;28;20049;-76
2021/01/19 08:39:19;;;;;;;147.50;60.23;;;51.20;2099.20;;;;;;4991416;28;20023;-76
2021/01/19 08:41:47;;;;;;;96.97;45.93;;;51.50;2073.60;;;;;;4990267;28;20111;-78
2021/01/19 08:44:14;;;;;;;60.43;32.60;;;51.30;2073.60;;;;;;4991743;28;20058;-77
2021/01/19 08:46:44;;;;;;;105.53;47.43;;;51.30;2073.60;;;;;;4990284;28;20034;-78
2021/01/19 08:49:15;;;;;;;69.23;35.83;;;51.30;2073.60;;;;;;4991513;28;20018;-77
2021/01/19 08:51:50;;;;;;;65.83;35.03;;;51.30;2073.60;;;;;;4990519;28;20035;-75
2021/01/19 08:54:17;;;;;;;132.47;55.77;;;51.30;2073.60;;;;;;4992749;28;20022;-78
2021/01/19 08:56:46;;;;;;;112.77;49.07;;;51.30;2073.60;;;;;;4992401;28;20052;-79
2021/01/19 08:59:19;;;;;;;95.53;46.03;;;51.40;2073.60;;;;;;4991934;28;20035;-78
2021/01/19 09:01:55;;;;;;;73.93;37.10;;;51.60;2048.00;;;;;;4988798;28;20026;-75
2021/01/19 09:04:26;;;;;;;76.23;37.87;;;51.80;2022.40;;;;;;4990983;28;20090;-77
2021/01/19 09:07:03;;;;;;;57.87;32.03;;;51.90;1996.80;;;;;;4991050;28;20069;-76
2021/01/19 09:09:28;;;;;;;65.97;35.63;;;51.90;2022.40;;;;;;4989607;28;20073;-79
2021/01/19 09:11:55;;;;;;;62.00;34.40;;;51.90;2022.40;;;;;;4989271;28;20034;-78
2021/01/19 09:14:25;;;;;;;67.80;36.03;;;51.80;2022.40;;;;;;4989419;28;20023;-77
2021/01/19 09:16:55;;;;;;;58.93;32.63;;;51.90;2022.40;;;;;;4972123;28;20094;-78
2021/01/19 09:19:22;;;;;;;66.17;35.30;;;51.90;2022.40;;;;;;4989655;28;20030;-76
2021/01/19 09:21:48;;;;;;;80.30;39.33;;;51.90;2022.40;;;;;;4989504;28;20505;-78
2021/01/19 09:24:16;;;;;;;71.53;38.40;;;52.00;2022.40;;;;;;4990559;28;20019;-77
2021/01/19 09:26:58;;;;;;;79.87;40.13;;;52.00;2022.40;;;;;;4989407;28;20059;-77
2021/01/19 09:29:28;;;;;;;56.70;32.80;;;76.80;1996.80;;;;;;4992041;28;20106;-80
2021/01/19 09:31:56;;;;;;;67.00;36.80;;;76.80;1996.80;;;;;;4990277;28;20027;-77
2021/01/19 09:34:24;;;;;;;67.37;39.20;;;76.90;1971.20;;;;;;4989545;28;20093;-76
2021/01/19 09:36:50;;;;;;;60.77;34.10;;;77.00;1971.20;;;;;;4990528;28;20087;-75
2021/01/19 09:39:30;;;;;;;59.63;34.60;;;77.10;1945.60;;;;;;4988066;28;20081;-79
2021/01/19 09:41:58;;;;;;;59.33;35.33;;;77.10;1971.20;;;;;;4990169;28;20031;-79
2021/01/19 09:44:25;;;;;;;68.83;38.50;;;77.00;1971.20;;;;;;4989907;28;20514;-78
2021/01/19 09:47:03;;;;;;;196.10;85.77;;;77.00;1996.80;;;;;;4989861;28;20105;-78
2021/01/19 09:49:30;;;;;;;148.00;66.37;;;77.00;1971.20;;;;;;4990188;28;20038;-78
2021/01/19 09:52:10;;;;;;;112.83;62.37;;;77.20;1971.20;;;;;;4990433;28;20480;-77
2021/01/19 09:54:36;;;;;;;143.27;78.30;;;77.10;1971.20;;;;;;4989157;28;20035;-78
2021/01/19 09:57:03;;;;;;;92.50;49.97;;;77.20;1945.60;;;;;;4988451;28;20064;-77
2021/01/19 09:59:31;;;;;;;135.40;70.67;;;77.30;1971.20;;;;;;4988662;28;20529;-75
2021/01/19 10:02:02;;;;;;;52.30;30.97;;;77.40;1945.60;;;;;;4993318;28;20100;-77
2021/01/19 10:04:34;;;;;;;86.13;47.53;;;103.10;1843.20;;;;;;4979938;28;20017;-77
2021/01/19 10:07:18;;;;;;;118.17;74.23;;;154.30;1638.40;;;;;;4993693;28;20053;-78
2021/01/19 10:09:44;;;;;;;49.85;31.00;;;179.90;1510.40;;;;;;4993157;28;20107;-77
2021/01/19 10:12:10;;;;;;;40.80;27.53;;;180.00;1484.80;;;;;;4995455;28;20027;-77
2021/01/19 10:14:37;;;;;;;49.20;30.80;;;154.40;1587.20;;;;;;4995333;28;20038;-76
2021/01/19 10:17:04;;;;;;;49.83;30.00;;;153.60;1664.00;;;;;;4999683;28;20030;-76
2021/01/19 10:19:32;;;;;;;47.10;28.23;;;154.00;1664.00;;;;;;4998463;28;20098;-75
2021/01/19 10:22:03;;;;;;;48.00;29.33;;;154.30;1612.80;;;;;;4995779;28;20133;-77
2021/01/19 10:24:29;;;;;;;40.13;25.47;;;153.60;1715.20;;;;;;4994867;28;20019;-78
2021/01/19 10:26:58;;;;;;;38.43;24.70;;;153.80;1766.40;;;;;;4999032;28;20063;-79
2021/01/19 10:29:24;;;;;;;39.40;24.97;;;153.60;1740.80;;;;;;4999072;28;20038;-77
2021/01/19 10:31:59;;;;;;;37.17;23.53;;;128.80;1740.80;;;;;;4990738;28;20046;-76
2021/01/19 10:34:27;;;;;;;34.27;22.60;;;128.50;1792.00;;;;;;4976766;28;20049;-75
2021/01/19 10:36:55;;;;;;;41.33;25.03;;;128.80;1766.40;;;;;;4993576;23;20053;-76
2021/01/19 10:39:55;;;;;;;42.23;26.43;;;153.70;1740.80;;;;;;4985840;28;20044;-76
2021/01/19 10:42:30;;;;;;;44.73;27.83;;;154.20;1689.60;;;;;;4988195;28;20015;-76
2021/01/19 10:45:04;;;;;;;42.43;27.07;;;154.40;1689.60;;;;;;4982243;28;20030;-76
2021/01/19 10:48:02;;;;;;;43.78;28.88;;;179.30;1664.00;;;;;;4992052;28;20070;-78
2021/01/19 10:51:23;;;;;;;38.10;24.27;;;154.30;1689.60;;;;;;4997208;28;20023;-76
2021/01/19 10:54:22;;;;;;;40.17;26.70;;;153.70;1740.80;;;;;;4995910;28;20019;-78
2021/01/19 10:57:18;;;;;;;47.97;30.33;;;128.80;1766.40;;;;;;4999997;28;20011;-77
2021/01/19 10:59:50;;;;;;;44.40;27.43;;;128.40;1817.60;;;;;;4999898;28;20035;-77
2021/01/19 11:02:17;;;;;;;45.73;27.97;;;128.20;1868.80;;;;;;4997080;28;20042;-77
2021/01/19 11:04:42;;;;;;;51.90;28.83;;;128.10;1868.80;;;;;;4997131;28;20026;-77
2021/01/19 11:07:08;;;;;;;46.80;28.03;;;128.10;1868.80;;;;;;4999739;28;20042;-77
2021/01/19 11:09:37;;;;;;;48.33;28.77;;;128.20;1868.80;;;;;;4999333;28;20049;-77
2021/01/19 11:12:57;;;;;;;43.33;26.67;;;128.40;1843.20;;;;;;4999813;28;20079;-78
2021/01/19 11:16:03;;;;;;;46.07;26.33;;;128.90;1792.00;;;;;;5001631;28;20099;-76
2021/01/19 11:18:31;;;;;;;52.80;29.10;;;153.60;1792.00;;;;;;4985172;28;20035;-77
2021/01/19 11:20:57;;;;;;;53.33;30.40;;;153.70;1792.00;;;;;;4993942;28;20031;-77
2021/01/19 11:23:23;;;;;;;48.77;27.93;;;153.60;1792.00;;;;;;4990858;28;20134;-76
2021/01/19 11:25:51;;;;;;;47.37;28.10;;;128.80;1817.60;;;;;;4993719;28;20078;-77
2021/01/19 11:28:17;;;;;;;44.90;26.30;;;128.90;1817.60;;;;;;4993488;28;20027;-77
2021/01/19 11:30:43;;;;;;;58.83;34.20;;;153.70;1792.00;;;;;;4989096;28;20038;-77
2021/01/19 11:33:12;;;;;;;45.30;25.83;;;154.00;1766.40;;;;;;4994431;28;20026;-77
2021/01/19 11:35:39;;;;;;;79.00;43.67;;;153.90;1766.40;;;;;;4989897;28;20377;-77
2021/01/19 11:38:13;;;;;;;128.20;61.73;;;153.70;1792.00;;;;;;5008331;28;20053;-77
2021/01/19 11:40:39;;;;;;;86.50;43.17;;;128.90;1817.60;;;;;;5030677;28;20026;-77
2021/01/19 11:43:05;;;;;;;77.50;39.77;;;128.80;1843.20;;;;;;4991735;28;20031;-76
2021/01/19 11:45:41;;;;;;;227.47;107.37;;;128.70;1843.20;;;;;;4997949;28;20014;-77
2021/01/19 11:48:08;;;;;;;145.70;74.67;;;128.70;1868.80;;;;;;5010380;28;20057;-77
2021/01/19 11:50:34;;;;;;;59.43;31.47;;;128.60;1868.80;;;;;;4997180;28;20042;-77
2021/01/19 11:53:15;;;;;;;101.10;50.80;;;128.50;1894.40;;;;;;5032517;28;20011;-78
2021/01/19 11:55:41;;;;;;;61.93;34.27;;;128.50;1894.40;;;;;;5016796;28;20034;-77
2021/01/19 11:58:08;;;;;;;42.40;22.90;;;128.50;1868.80;;;;;;5000190;28;20034;-77
2021/01/19 12:00:38;;;;;;;49.00;26.47;;;128.40;1894.40;;;;;;5029435;28;20042;-77
2021/01/19 12:03:13;;;;;;;91.43;42.23;;;128.40;1920.00;;;;;;5000308;28;20043;-77
2021/01/19 12:06:25;;;;;;;49.93;25.67;;;128.50;1920.00;;;;;;5001098;28;20025;-77
2021/01/19 12:09:13;;;;;;;55.47;31.20;;;128.40;1945.60;;;;;;5000810;28;20074;-78
2021/01/19 12:11:45;;;;;;;50.10;27.37;;;128.40;1945.60;;;;;;4983998;28;20046;-77
2021/01/19 12:14:11;;;;;;;67.07;37.07;;;128.40;1971.20;;;;;;5001564;28;20022;-77
2021/01/19 12:16:38;;;;;;;60.03;33.13;;;128.50;1971.20;;;;;;4990667;28;20019;-77
2021/01/19 12:19:10;;;;;;;43.43;25.07;;;128.10;1971.20;;;;;;5013676;28;20027;-75
2021/01/19 12:22:00;;;;;;;42.37;24.20;;;128.50;1945.60;;;;;;5011822;28;20057;-77
2021/01/19 12:24:27;;;;;;;49.13;26.10;;;128.50;1945.60;;;;;;4995041;28;20030;-77
2021/01/19 12:27:10;;;;;;;47.00;25.50;;;128.50;1945.60;;;;;;5004369;28;20034;-77
2021/01/19 12:29:37;;;;;;;36.40;22.23;;;128.60;1945.60;;;;;;4979491;28;20514;-77
2021/01/19 12:32:11;;;;;;;36.83;22.87;;;128.60;1920.00;;;;;;4995300;28;20038;-78
2021/01/19 12:34:55;;;;;;;;;;;128.70;1945.60;;;;;;4984355;28;20015;-78